createdAt,value
2022-08-03T00:02:41.756Z,1.57
2022-08-03T00:07:50.717Z,1.70
2022-08-03T00:12:58.398Z,1.57
2022-08-03T00:18:05.735Z,1.70
2022-08-03T00:23:13.063Z,1.70
2022-08-03T00:28:20.367Z,1.90
2022-08-03T00:33:28.019Z,1.83
2022-08-03T00:38:41.749Z,1.67
2022-08-03T00:43:49.019Z,1.63
2022-08-03T00:48:56.982Z,1.67
2022-08-03T00:54:04.708Z,1.87
2022-08-03T00:59:12.478Z,2.00
2022-08-03T01:04:21.393Z,1.80
2022-08-03T01:09:30.743Z,1.90
2022-08-03T01:14:41.153Z,1.80
2022-08-03T01:19:51.409Z,2.10
2022-08-03T01:25:01.594Z,1.80
2022-08-03T01:30:08.679Z,1.83
2022-08-03T01:35:19.917Z,2.00
2022-08-03T01:40:29.441Z,1.90
2022-08-03T01:45:42.639Z,2.00
2022-08-03T01:50:52.317Z,1.90
2022-08-03T01:56:01.498Z,2.10
2022-08-03T02:01:11.188Z,2.00
2022-08-03T02:07:01.394Z,2.20
2022-08-03T02:11:32.641Z,2.00
2022-08-03T02:16:40.243Z,2.40
2022-08-03T02:21:56.849Z,2.27
2022-08-03T02:27:00.373Z,2.80
2022-08-03T02:32:08.972Z,2.33
2022-08-03T02:37:20.123Z,2.40
2022-08-03T02:42:31.215Z,2.27
2022-08-03T02:47:53.190Z,3.17
2022-08-03T02:52:52.886Z,2.87
2022-08-03T02:58:01.433Z,2.90
2022-08-03T03:03:12.647Z,2.90
2022-08-03T03:08:26.732Z,2.93
2022-08-03T03:13:32.662Z,2.80
2022-08-03T03:18:40.958Z,2.53
2022-08-03T03:23:49.597Z,2.50
2022-08-03T03:28:57.393Z,3.00
2022-08-03T03:34:05.617Z,2.70
2022-08-03T03:39:15.676Z,2.40
2022-08-03T03:44:23.640Z,2.50
2022-08-03T03:49:32.373Z,2.60
2022-08-03T03:54:43.581Z,2.60
2022-08-03T03:59:50.996Z,3.00
2022-08-03T04:04:59.776Z,2.80
2022-08-03T04:10:14.340Z,2.83
2022-08-03T04:15:24.164Z,2.43
2022-08-03T04:20:33.959Z,2.80
2022-08-03T04:25:43.259Z,2.87
2022-08-03T04:30:52.863Z,2.50
2022-08-03T04:36:03.602Z,2.90
2022-08-03T04:41:11.913Z,2.80
2022-08-03T04:46:22.497Z,2.50
2022-08-03T04:51:30.668Z,2.80
2022-08-03T04:56:39.839Z,2.50
2022-08-03T05:01:47.469Z,2.70
2022-08-03T05:06:55.285Z,3.00
2022-08-03T05:12:03.865Z,2.70
2022-08-03T05:17:12.519Z,2.73
2022-08-03T05:22:21.730Z,2.97
2022-08-03T05:27:29.775Z,2.80
2022-08-03T05:32:38.055Z,3.03
2022-08-03T05:37:52.979Z,3.10
2022-08-03T05:42:55.432Z,3.00
2022-08-03T05:48:05.289Z,3.10
2022-08-03T05:53:13.362Z,3.00
2022-08-03T05:58:21.471Z,2.90
2022-08-03T06:03:30.602Z,3.07
2022-08-03T06:08:39.206Z,2.97
2022-08-03T06:13:47.629Z,2.90
2022-08-03T06:18:56.924Z,2.90
2022-08-03T06:24:07.202Z,3.30
2022-08-03T06:29:17.621Z,3.00
2022-08-03T06:34:34.447Z,3.07
2022-08-03T06:39:35.863Z,3.10
2022-08-03T06:44:44.755Z,3.17
2022-08-03T06:50:16.218Z,3.00
2022-08-03T06:55:03.516Z,3.17
2022-08-03T07:00:12.985Z,3.20
2022-08-03T07:05:22.034Z,3.17
2022-08-03T07:10:31.118Z,3.20
2022-08-03T07:15:55.458Z,3.30
2022-08-03T07:20:51.006Z,3.13
2022-08-03T07:26:01.854Z,3.10
2022-08-03T07:31:10.511Z,2.87
2022-08-03T07:36:18.405Z,2.87
2022-08-03T07:41:26.869Z,3.23
2022-08-03T07:46:34.972Z,2.80
2022-08-03T07:51:44.908Z,3.03
2022-08-03T07:56:52.784Z,3.07
2022-08-03T08:02:01.042Z,3.50
2022-08-03T08:07:09.966Z,3.90
2022-08-03T08:12:19.604Z,3.90
2022-08-03T08:17:27.961Z,3.47
2022-08-03T08:22:35.799Z,3.97
2022-08-03T08:28:29.133Z,4.13
2022-08-03T08:33:22.614Z,4.30
2022-08-03T08:38:26.349Z,4.10
2022-08-03T08:43:34.603Z,4.10
2022-08-03T08:48:45.339Z,4.50
2022-08-03T08:53:55.239Z,4.07
2022-08-03T08:59:05.743Z,4.07
2022-08-03T09:04:39.498Z,3.90
2022-08-03T09:10:12.730Z,3.90
2022-08-03T09:15:15.926Z,3.80
2022-08-03T09:20:09.885Z,3.30
2022-08-03T09:25:25.040Z,2.90
2022-08-03T09:30:41.912Z,2.53
2022-08-03T09:35:57.638Z,2.20
2022-08-03T09:41:06.013Z,2.47
2022-08-03T09:46:15.026Z,2.10
2022-08-03T09:52:18.700Z,2.25
2022-08-03T09:56:38.585Z,2.10
2022-08-03T10:01:48.141Z,2.30
2022-08-03T10:07:02.525Z,2.30
2022-08-03T10:12:23.379Z,2.00
2022-08-03T10:17:40.062Z,2.17
2022-08-03T10:22:56.153Z,2.20
2022-08-03T10:28:28.349Z,2.20
2022-08-03T10:33:49.483Z,2.37
2022-08-03T10:38:55.215Z,2.33
2022-08-03T10:44:06.963Z,2.25
2022-08-03T10:49:33.711Z,2.20
2022-08-03T10:54:30.016Z,2.00
2022-08-03T10:59:52.022Z,2.02
2022-08-03T11:05:13.285Z,2.20
2022-08-03T11:10:28.087Z,2.08
2022-08-03T11:15:41.575Z,2.10
2022-08-03T11:20:48.592Z,2.17
2022-08-03T11:26:11.157Z,1.98
2022-08-03T11:36:45.081Z,2.05
2022-08-03T11:42:01.277Z,2.10
2022-08-03T11:47:15.987Z,2.10
2022-08-03T11:52:27.263Z,2.20
2022-08-03T11:59:15.141Z,2.15
2022-08-03T12:02:58.489Z,1.80
2022-08-03T12:08:08.370Z,2.20
2022-08-03T12:14:45.436Z,1.90
2022-08-03T12:18:31.752Z,1.87
2022-08-03T12:23:40.843Z,2.20
2022-08-03T12:28:54.629Z,2.20
2022-08-03T12:34:11.321Z,2.33
2022-08-03T12:39:25.856Z,2.02
2022-08-03T12:44:35.781Z,2.00
2022-08-03T12:49:48.471Z,2.30
2022-08-03T12:55:01.902Z,2.45
2022-08-03T13:00:29.051Z,2.47
2022-08-03T13:05:24.198Z,2.45
2022-08-03T13:10:36.225Z,2.70
2022-08-03T13:15:47.807Z,2.27
2022-08-03T13:20:57.565Z,2.20
2022-08-03T13:26:12.033Z,2.30
2022-08-03T13:31:24.554Z,2.40
2022-08-03T13:36:59.225Z,2.62
2022-08-03T13:41:51.787Z,2.35
2022-08-03T13:47:01.615Z,2.90
2022-08-03T13:52:13.782Z,2.50
2022-08-03T13:58:06.483Z,2.55
2022-08-03T14:02:42.860Z,2.80
2022-08-03T14:07:50.512Z,2.50
2022-08-03T14:12:59.888Z,2.62
2022-08-03T14:18:16.115Z,2.58
2022-08-03T14:23:28.679Z,3.17
2022-08-03T14:28:38.568Z,2.50
2022-08-03T14:33:46.484Z,2.50
2022-08-03T14:38:57.101Z,2.85
2022-08-03T14:44:05.446Z,2.75
2022-08-03T14:50:38.461Z,2.65
2022-08-03T14:54:35.696Z,2.55
2022-08-03T14:59:55.538Z,2.77
2022-08-03T15:04:58.738Z,2.60
2022-08-03T15:10:10.501Z,2.65
2022-08-03T15:15:19.173Z,2.60
2022-08-03T15:20:42.435Z,2.92
2022-08-03T15:26:31.703Z,2.85
2022-08-03T15:30:48.443Z,2.62
2022-08-03T15:35:57.541Z,2.87
2022-08-03T15:41:13.506Z,2.70
2022-08-03T15:46:29.079Z,2.90
2022-08-03T15:51:28.111Z,2.58
2022-08-03T15:56:36.776Z,2.42
2022-08-03T16:01:50.765Z,2.50
2022-08-03T16:07:01.076Z,2.70
2022-08-03T16:12:15.549Z,2.77
2022-08-03T16:17:25.145Z,2.58
2022-08-03T16:22:34.343Z,2.65
2022-08-03T16:28:03.256Z,2.60
2022-08-03T16:32:55.068Z,2.60
2022-08-03T16:38:14.112Z,2.80
2022-08-03T16:43:21.523Z,2.80
2022-08-03T16:48:30.784Z,2.40
2022-08-03T16:54:07.234Z,2.50
2022-08-03T16:58:50.406Z,2.65
2022-08-03T17:04:04.859Z,2.52
2022-08-03T17:09:15.433Z,2.42
2022-08-03T17:14:29.464Z,2.40
2022-08-03T17:19:38.957Z,2.52
2022-08-03T17:24:50.236Z,2.60
2022-08-03T17:30:02.625Z,2.50
2022-08-03T17:35:14.792Z,2.40
2022-08-03T17:40:24.682Z,2.70
2022-08-03T17:45:51.906Z,2.47
2022-08-03T17:50:46.656Z,2.35
2022-08-03T17:55:59.663Z,2.60
2022-08-03T18:02:00.617Z,2.60
2022-08-03T18:06:28.977Z,2.55
2022-08-03T18:11:38.935Z,2.65
2022-08-03T18:16:50.470Z,2.50
2022-08-03T18:22:03.276Z,2.30
2022-08-03T18:27:11.324Z,2.37
2022-08-03T18:32:20.872Z,2.40
2022-08-03T18:37:33.359Z,2.27
2022-08-03T18:42:51.068Z,2.42
2022-08-03T18:47:53.972Z,2.42
2022-08-03T18:53:15.707Z,2.70
2022-08-03T18:58:24.100Z,2.27
2022-08-03T19:03:41.571Z,2.40
2022-08-03T19:08:49.484Z,2.80
2022-08-03T19:14:00.444Z,3.70
2022-08-03T19:19:14.450Z,2.30
2022-08-03T19:24:25.989Z,2.62
2022-08-03T19:29:58.580Z,2.60
2022-08-03T19:34:47.211Z,2.40
2022-08-03T19:39:57.052Z,2.60
2022-08-03T19:45:11.232Z,2.47
2022-08-03T19:50:21.498Z,2.53
2022-08-03T19:55:34.602Z,2.77
2022-08-03T20:00:48.718Z,2.50
2022-08-03T20:06:00.673Z,2.90
2022-08-03T20:11:13.245Z,2.67
2022-08-03T20:16:21.982Z,2.55
2022-08-03T20:21:37.662Z,2.70
2022-08-03T20:26:49.577Z,2.97
2022-08-03T20:32:00.621Z,2.80
2022-08-03T20:37:12.084Z,2.97
2022-08-03T20:42:23.569Z,3.07
2022-08-03T20:47:33.131Z,3.17
2022-08-03T20:52:43.930Z,2.80
2022-08-03T20:57:56.136Z,3.20
2022-08-03T21:03:05.189Z,3.27
2022-08-03T21:08:17.956Z,3.20
2022-08-03T21:13:29.455Z,2.93
2022-08-03T21:18:41.302Z,2.80
2022-08-03T21:23:53.516Z,3.10
2022-08-03T21:29:03.039Z,3.30
2022-08-03T21:34:11.802Z,3.00
2022-08-03T21:39:20.622Z,3.23
2022-08-03T21:44:29.335Z,3.40
2022-08-03T21:50:04.560Z,3.30
2022-08-03T21:54:51.322Z,3.40
2022-08-03T22:00:02.688Z,3.07
2022-08-03T22:05:14.557Z,3.60
2022-08-03T22:10:23.298Z,3.27
2022-08-03T22:15:32.299Z,3.10
2022-08-03T22:20:41.790Z,3.00
2022-08-03T22:25:52.972Z,2.90
2022-08-03T22:31:56.866Z,2.90
2022-08-03T22:36:14.387Z,3.20
2022-08-03T22:41:24.157Z,2.80
2022-08-03T22:46:34.969Z,2.77
2022-08-03T22:51:44.429Z,3.30
2022-08-03T22:56:55.403Z,3.00
2022-08-03T23:02:19.873Z,2.73
2022-08-03T23:07:20.108Z,3.07
2022-08-03T23:12:31.473Z,2.87
2022-08-03T23:17:58.067Z,2.70
2022-08-03T23:22:53.559Z,2.87
2022-08-03T23:28:05.319Z,2.83
2022-08-03T23:33:14.313Z,2.67
2022-08-03T23:38:24.734Z,2.50
2022-08-03T23:43:51.044Z,2.90
2022-08-03T23:48:44.767Z,2.60
2022-08-03T23:53:58.756Z,2.90
2022-08-03T23:59:06.971Z,2.90
